Check out our new BloomSky Weather System.

Active alerts

Houston, TX
  Details for Houston, TX Areal Flood Advisory


Thunder radar  blitzortung!


Rain radar more information rain snow radar


Visit our other weather sites:

Template documentation
and downloads

And another site



Weather Underground History page Text

Daily Summary for October 28, 2017 Units:  English    Metric   Both
« Previous Day
Next Day »
Daily Weekly Monthly Yearly Custom
  High: Low: Average:
Temperature: TemperatureF °F 40.8 °F 50.3 °F
Dew Point: DewpointF °F 28.9 °F 32.3 °F
Humidity: Humidity % 31 % 52 %
Wind Speed: WindSpeedMPH mph 0.0 mph 3.4 mph
Wind Gust: WindSpeedGustMPH mph - -
Wind:- - WNW
Pressure: PressureIn in 30.08 in -
Precipitation: 0.00 in    
Historical Graphs
 
 
Tabular Data for October 28, 2017
Time Temperature Dew Point Pressure Wind Wind Speed Wind Gust Humidity Rainfall Rate (Hourly)
TemperatureF °F DewpointF °F PressureIn in Calm     Humidity % HourlyPrecipIn in
00:04 49.3 °F 33.3 °F 30.11 in NNW 6.0 mph 15.0 mph 54 % 0.00 in
00:09 49.3 °F 33.3 °F 30.11 in North 4.0 mph 15.0 mph 54 % 0.00 in
00:14 49.3 °F 33.3 °F 30.11 in NW 5.0 mph 15.0 mph 54 % 0.00 in
00:19 49.1 °F 33.3 °F 30.12 in North 4.0 mph 14.0 mph 54 % 0.00 in
00:24 49.1 °F 33.3 °F 30.12 in NW 7.0 mph 14.0 mph 54 % 0.00 in
00:29 48.9 °F 33.1 °F 30.12 in NNW 12.0 mph 12.0 mph 54 % 0.00 in
00:34 48.9 °F 33.1 °F 30.12 in NW 5.0 mph 15.0 mph 54 % 0.00 in
00:39 48.9 °F 33.1 °F 30.12 in WNW 6.0 mph 15.0 mph 54 % 0.00 in
00:44 48.7 °F 32.9 °F 30.11 in NNW 5.0 mph 15.0 mph 54 % 0.00 in
00:49 48.7 °F 33.3 °F 30.11 in NNW 8.0 mph 14.0 mph 55 % 0.00 in
00:54 48.6 °F 33.1 °F 30.11 in North 4.0 mph 14.0 mph 55 % 0.00 in
00:59 48.6 °F 33.1 °F 30.11 in NW 5.0 mph 12.0 mph 55 % 0.00 in
01:04 48.6 °F 32.7 °F 30.11 in NNW 10.0 mph 10.0 mph 54 % 0.00 in
01:09 48.6 °F 32.7 °F 30.11 in NW 10.0 mph 13.0 mph 54 % 0.00 in
01:14 48.6 °F 32.7 °F 30.11 in NNW 3.0 mph 14.0 mph 54 % 0.00 in
01:19 48.7 °F 32.9 °F 30.11 in NNW 4.0 mph 14.0 mph 54 % 0.00 in
01:24 48.7 °F 32.9 °F 30.11 in West 11.0 mph 14.0 mph 54 % 0.00 in
01:29 48.7 °F 32.9 °F 30.11 in North 5.0 mph 14.0 mph 54 % 0.00 in
01:34 48.7 °F 32.9 °F 30.11 in WNW 4.0 mph 14.0 mph 54 % 0.00 in
01:39 48.7 °F 32.9 °F 30.11 in NW 8.0 mph 14.0 mph 54 % 0.00 in
01:44 48.7 °F 32.9 °F 30.10 in WNW 9.0 mph 11.0 mph 54 % 0.00 in
01:49 48.6 °F 32.7 °F 30.10 in NNW 7.0 mph 11.0 mph 54 % 0.00 in
01:54 48.4 °F 32.5 °F 30.10 in NW 6.0 mph 11.0 mph 54 % 0.00 in
01:59 48.4 °F 32.9 °F 30.10 in NNW 8.0 mph 13.0 mph 55 % 0.00 in
02:04 48.0 °F 32.5 °F 30.10 in WNW 2.0 mph 13.0 mph 55 % 0.00 in
02:09 47.8 °F 32.5 °F 30.10 in NW 3.0 mph 13.0 mph 55 % 0.00 in
02:14 47.7 °F 32.7 °F 30.10 in Calm   12.0 mph 56 % 0.00 in
02:19 47.5 °F 33.1 °F 30.11 in NNW 7.0 mph 9.0 mph 57 % 0.00 in
02:24 47.5 °F 33.1 °F 30.11 in NW 4.0 mph 10.0 mph 57 % 0.00 in
02:29 47.1 °F 32.7 °F 30.11 in NNW 4.0 mph 10.0 mph 57 % 0.00 in
02:34 47.1 °F 33.1 °F 30.10 in NW 2.0 mph 10.0 mph 58 % 0.00 in
02:39 46.9 °F 33.4 °F 30.10 in NNW 4.0 mph 10.0 mph 59 % 0.00 in
02:44 46.8 °F 33.3 °F 30.10 in NW 4.0 mph 10.0 mph 59 % 0.00 in
02:49 46.8 °F 33.3 °F 30.10 in NW 1.0 mph 9.0 mph 59 % 0.00 in
02:54 46.6 °F 33.4 °F 30.11 in NW 1.0 mph 9.0 mph 60 % 0.00 in
02:59 46.2 °F 33.4 °F 30.11 in NW 6.0 mph 9.0 mph 61 % 0.00 in
03:04 46.0 °F 33.8 °F 30.11 in NW 1.0 mph 9.0 mph 62 % 0.00 in
03:09 45.9 °F 34.0 °F 30.11 in NNW 4.0 mph 9.0 mph 63 % 0.00 in
03:14 45.7 °F 33.8 °F 30.11 in NNW 2.0 mph 9.0 mph 63 % 0.00 in
03:19 45.7 °F 33.8 °F 30.11 in NW 4.0 mph 9.0 mph 63 % 0.00 in
03:24 45.5 °F 34.0 °F 30.11 in WNW 3.0 mph 6.0 mph 64 % 0.00 in
03:29 45.3 °F 33.8 °F 30.11 in NW 3.0 mph 7.0 mph 64 % 0.00 in
03:34 45.1 °F 33.6 °F 30.11 in NNW 2.0 mph 7.0 mph 64 % 0.00 in
03:39 45.1 °F 34.2 °F 30.11 in NNW 4.0 mph 7.0 mph 65 % 0.00 in
03:44 45.1 °F 34.2 °F 30.11 in NW 3.0 mph 7.0 mph 65 % 0.00 in
03:49 45.0 °F 34.0 °F 30.11 in NNE 4.0 mph 8.0 mph 65 % 0.00 in
03:54 45.0 °F 34.0 °F 30.11 in NNW 1.0 mph 9.0 mph 65 % 0.00 in
03:59 45.0 °F 34.0 °F 30.11 in NNW 3.0 mph 9.0 mph 65 % 0.00 in
04:04 44.8 °F 33.3 °F 30.11 in NNW 2.0 mph 9.0 mph 64 % 0.00 in
04:09 44.8 °F 33.3 °F 30.11 in West 1.0 mph 8.0 mph 64 % 0.00 in
04:14 44.8 °F 33.8 °F 30.11 in NNW 4.0 mph 8.0 mph 65 % 0.00 in
04:19 44.8 °F 33.8 °F 30.11 in NW 1.0 mph 7.0 mph 65 % 0.00 in
04:24 44.6 °F 33.6 °F 30.11 in WNW 4.0 mph 9.0 mph 65 % 0.00 in
04:29 44.4 °F 33.8 °F 30.11 in NW 1.0 mph 9.0 mph 66 % 0.00 in
04:34 44.4 °F 33.8 °F 30.12 in Calm   9.0 mph 66 % 0.00 in
04:39 44.1 °F 34.2 °F 30.11 in NW 1.0 mph 5.0 mph 68 % 0.00 in
04:44 43.9 °F 35.1 °F 30.12 in NW 3.0 mph 5.0 mph 71 % 0.00 in
04:49 43.7 °F 35.2 °F 30.12 in NW 4.0 mph 6.0 mph 72 % 0.00 in
04:55 43.3 °F 35.2 °F 30.12 in NNW 3.0 mph 6.0 mph 73 % 0.00 in
05:05 43.2 °F 35.8 °F 30.12 in WNW 2.0 mph 5.0 mph 75 % 0.00 in
05:10 43.0 °F 35.6 °F 30.12 in WNW 3.0 mph 5.0 mph 75 % 0.00 in
05:15 42.8 °F 35.4 °F 30.12 in NW 2.0 mph 5.0 mph 75 % 0.00 in
05:20 42.6 °F 35.6 °F 30.12 in NW 2.0 mph 5.0 mph 76 % 0.00 in
05:25 42.4 °F 35.4 °F 30.12 in Calm   5.0 mph 76 % 0.00 in
05:30 42.3 °F 35.6 °F 30.12 in NW 1.0 mph 5.0 mph 77 % 0.00 in
05:40 42.1 °F 35.4 °F 30.12 in NNW 1.0 mph 3.0 mph 77 % 0.00 in
05:45 41.9 °F 35.2 °F 30.12 in NW 1.0 mph 2.0 mph 77 % 0.00 in
05:50 41.9 °F 35.2 °F 30.12 in NW 3.0 mph 5.0 mph 77 % 0.00 in
05:55 42.1 °F 35.4 °F 30.12 in WNW 1.0 mph 5.0 mph 77 % 0.00 in
06:00 42.1 °F 35.1 °F 30.13 in NNW 2.0 mph 5.0 mph 76 % 0.00 in
06:05 42.1 °F 34.7 °F 30.13 in NNW 2.0 mph 5.0 mph 75 % 0.00 in
06:10 42.1 °F 34.3 °F 30.13 in NW 2.0 mph 5.0 mph 74 % 0.00 in
06:15 42.1 °F 34.3 °F 30.13 in NW 1.0 mph 4.0 mph 74 % 0.00 in
06:20 42.1 °F 34.3 °F 30.13 in Calm   4.0 mph 74 % 0.00 in
06:25 42.1 °F 34.0 °F 30.12 in WNW 4.0 mph 4.0 mph 73 % 0.00 in
06:30 42.1 °F 33.4 °F 30.13 in NNW 2.0 mph 5.0 mph 71 % 0.00 in
06:35 42.1 °F 33.4 °F 30.13 in WNW 3.0 mph 5.0 mph 71 % 0.00 in
06:40 42.1 °F 33.1 °F 30.13 in NNW 2.0 mph 5.0 mph 70 % 0.00 in
06:45 42.1 °F 32.7 °F 30.13 in NW 1.0 mph 7.0 mph 69 % 0.00 in
06:50 42.1 °F 32.7 °F 30.13 in NW 3.0 mph 7.0 mph 69 % 0.00 in
06:55 42.1 °F 32.4 °F 30.13 in NW 3.0 mph 7.0 mph 68 % 0.00 in
07:00 42.3 °F 32.5 °F 30.14 in NW 1.0 mph 5.0 mph 68 % 0.00 in
07:05 42.1 °F 32.4 °F 30.14 in NNW 1.0 mph 5.0 mph 68 % 0.00 in
07:10 42.1 °F 32.4 °F 30.14 in WNW 1.0 mph 7.0 mph 68 % 0.00 in
07:20 42.1 °F 32.4 °F 30.14 in NW 3.0 mph 7.0 mph 68 % 0.00 in
07:25 42.1 °F 32.4 °F 30.14 in WNW 2.0 mph 7.0 mph 68 % 0.00 in
07:30 42.1 °F 32.4 °F 30.15 in Calm   5.0 mph 68 % 0.00 in
07:35 42.1 °F 32.4 °F 30.15 in North 2.0 mph 5.0 mph 68 % 0.00 in
07:40 42.1 °F 32.4 °F 30.15 in Calm   4.0 mph 68 % 0.00 in
07:45 42.1 °F 33.8 °F 30.15 in Calm   4.0 mph 72 % 0.00 in
07:50 41.7 °F 34.3 °F 30.15 in Calm   4.0 mph 75 % 0.00 in
07:55 41.5 °F 34.5 °F 30.15 in Calm   2.0 mph 76 % 0.00 in
08:00 41.5 °F 34.5 °F 30.15 in West 1.0 mph 2.0 mph 76 % 0.00 in
08:05 41.5 °F 34.5 °F 30.15 in NW 1.0 mph 4.0 mph 76 % 0.00 in
08:10 41.7 °F 34.7 °F 30.15 in NW 1.0 mph 5.0 mph 76 % 0.00 in
08:15 42.1 °F 34.7 °F 30.15 in WNW 1.0 mph 5.0 mph 75 % 0.00 in
08:20 42.3 °F 34.9 °F 30.15 in NW 2.0 mph 5.0 mph 75 % 0.00 in
08:25 42.4 °F 34.7 °F 30.16 in NW 1.0 mph 5.0 mph 74 % 0.00 in
08:30 42.4 °F 34.7 °F 30.16 in NW 1.0 mph 3.0 mph 74 % 0.00 in
08:35 43.0 °F 35.2 °F 30.16 in NW 1.0 mph 4.0 mph 74 % 0.00 in
08:40 43.5 °F 34.3 °F 30.16 in NW 2.0 mph 4.0 mph 70 % 0.00 in
08:45 44.8 °F 33.8 °F 30.16 in NW 3.0 mph 7.0 mph 65 % 0.00 in
08:50 45.5 °F 32.9 °F 30.16 in NNW 3.0 mph 8.0 mph 61 % 0.00 in
08:55 45.9 °F 32.7 °F 30.16 in WNW 3.0 mph 9.0 mph 60 % 0.00 in
09:00 46.0 °F 32.5 °F 30.17 in NW 3.0 mph 9.0 mph 59 % 0.00 in
09:05 46.6 °F 33.4 °F 30.17 in West 3.0 mph 12.0 mph 60 % 0.00 in
09:10 47.3 °F 32.9 °F 30.17 in NNE 5.0 mph 12.0 mph 57 % 0.00 in
09:15 47.7 °F 32.7 °F 30.17 in WNW 4.0 mph 12.0 mph 56 % 0.00 in
09:20 47.5 °F 32.5 °F 30.17 in North 5.0 mph 12.0 mph 56 % 0.00 in
09:25 47.1 °F 32.2 °F 30.18 in WNW 5.0 mph 10.0 mph 56 % 0.00 in
09:30 47.3 °F 32.9 °F 30.18 in WNW 3.0 mph 9.0 mph 57 % 0.00 in
09:35 47.8 °F 32.5 °F 30.18 in NW 4.0 mph 9.0 mph 55 % 0.00 in
09:40 47.8 °F 32.0 °F 30.18 in North 8.0 mph 13.0 mph 54 % 0.00 in
09:45 48.0 °F 32.5 °F 30.18 in WNW 4.0 mph 13.0 mph 55 % 0.00 in
09:50 48.7 °F 33.3 °F 30.18 in NNW 2.0 mph 13.0 mph 55 % 0.00 in
09:55 49.5 °F 33.4 °F 30.18 in North 4.0 mph 9.0 mph 54 % 0.00 in
10:00 49.8 °F 32.9 °F 30.18 in NW 2.0 mph 8.0 mph 52 % 0.00 in
10:05 50.0 °F 32.5 °F 30.18 in NNW 6.0 mph 8.0 mph 51 % 0.00 in
10:10 50.2 °F 32.7 °F 30.18 in North 7.0 mph 11.0 mph 51 % 0.00 in
10:15 50.4 °F 32.0 °F 30.18 in WNW 7.0 mph 11.0 mph 49 % 0.00 in
10:20 50.4 °F 31.5 °F 30.18 in North 4.0 mph 13.0 mph 48 % 0.00 in
10:25 50.5 °F 31.6 °F 30.18 in WNW 4.0 mph 13.0 mph 48 % 0.00 in
10:30 50.9 °F 31.8 °F 30.18 in NW 4.0 mph 17.0 mph 48 % 0.00 in
10:35 51.4 °F 31.8 °F 30.18 in WNW 3.0 mph 17.0 mph 47 % 0.00 in
10:40 51.4 °F 31.3 °F 30.18 in NW 6.0 mph 17.0 mph 46 % 0.00 in
10:45 51.6 °F 31.5 °F 30.18 in NNW 6.0 mph 14.0 mph 46 % 0.00 in
10:50 52.2 °F 32.0 °F 30.18 in WNW 4.0 mph 14.0 mph 46 % 0.00 in
10:55 52.3 °F 32.2 °F 30.18 in NW 4.0 mph 12.0 mph 46 % 0.00 in
11:00 52.2 °F 32.0 °F 30.18 in North 7.0 mph 12.0 mph 46 % 0.00 in
11:05 52.3 °F 32.2 °F 30.18 in North 5.0 mph 13.0 mph 46 % 0.00 in
11:10 52.5 °F 31.8 °F 30.18 in NW 9.0 mph 13.0 mph 45 % 0.00 in
11:15 53.1 °F 31.6 °F 30.18 in WNW 6.0 mph 13.0 mph 44 % 0.00 in
11:20 52.9 °F 31.6 °F 30.18 in West 6.0 mph 13.0 mph 44 % 0.00 in
11:25 53.1 °F 31.1 °F 30.18 in NNW 11.0 mph 13.0 mph 43 % 0.00 in
11:30 53.2 °F 31.3 °F 30.18 in WNW 4.0 mph 13.0 mph 43 % 0.00 in
11:35 53.8 °F 31.8 °F 30.17 in NNW 6.0 mph 13.0 mph 43 % 0.00 in
11:40 53.8 °F 32.9 °F 30.17 in NNW 6.0 mph 13.0 mph 45 % 0.00 in
11:45 53.8 °F 32.4 °F 30.17 in NW 9.0 mph 13.0 mph 44 % 0.00 in
11:50 53.8 °F 32.9 °F 30.17 in WNW 4.0 mph 13.0 mph 45 % 0.00 in
11:55 54.1 °F 33.3 °F 30.17 in NW 4.0 mph 11.0 mph 45 % 0.00 in
12:00 54.1 °F 33.3 °F 30.17 in NNE 6.0 mph 12.0 mph 45 % 0.00 in
12:05 54.3 °F 32.4 °F 30.17 in NW 6.0 mph 12.0 mph 43 % 0.00 in
12:10 54.7 °F 32.5 °F 30.17 in NW 3.0 mph 12.0 mph 43 % 0.00 in
12:15 55.0 °F 34.2 °F 30.17 in WNW 6.0 mph 12.0 mph 45 % 0.00 in
12:20 55.4 °F 33.8 °F 30.17 in NW 5.0 mph 12.0 mph 44 % 0.00 in
12:25 55.9 °F 33.8 °F 30.17 in WNW 3.0 mph 11.0 mph 43 % 0.00 in
12:30 55.8 °F 33.6 °F 30.17 in WNW 4.0 mph 11.0 mph 43 % 0.00 in
12:35 55.6 °F 33.4 °F 30.17 in WNW 8.0 mph 12.0 mph 43 % 0.00 in
12:40 55.9 °F 33.3 °F 30.17 in NW 7.0 mph 12.0 mph 42 % 0.00 in
12:45 55.2 °F 31.3 °F 30.17 in WNW 9.0 mph 16.0 mph 40 % 0.00 in
12:50 55.0 °F 31.1 °F 30.16 in WNW 8.0 mph 16.0 mph 40 % 0.00 in
12:55 55.8 °F 33.1 °F 30.16 in NW 3.0 mph 16.0 mph 42 % 0.00 in
13:00 56.5 °F 33.1 °F 30.16 in NW 8.0 mph 14.0 mph 41 % 0.00 in
13:05 56.8 °F 33.4 °F 30.15 in WNW 4.0 mph 12.0 mph 41 % 0.00 in
13:10 56.7 °F 32.5 °F 30.15 in NNW 5.0 mph 12.0 mph 40 % 0.00 in
13:15 56.3 °F 32.4 °F 30.14 in NW 5.0 mph 12.0 mph 40 % 0.00 in
13:20 56.7 °F 32.5 °F 30.14 in NW 6.0 mph 15.0 mph 40 % 0.00 in
13:25 56.7 °F 32.0 °F 30.14 in NW 5.0 mph 15.0 mph 39 % 0.00 in
13:30 57.4 °F 32.5 °F 30.13 in WNW 7.0 mph 15.0 mph 39 % 0.00 in
13:35 57.4 °F 31.3 °F 30.13 in NW 7.0 mph 15.0 mph 37 % 0.00 in
13:40 56.8 °F 30.9 °F 30.13 in NW 10.0 mph 16.0 mph 37 % 0.00 in
13:41 56.7 °F 30.7 °F 30.13 in North 7.0 mph 16.0 mph 37 % 0.00 in
13:46 56.8 °F 32.2 °F 30.13 in NNW 6.0 mph 16.0 mph 39 % 0.00 in
13:51 57.4 °F 32.5 °F 30.13 in WNW 8.0 mph 16.0 mph 39 % 0.00 in
13:56 57.4 °F 32.5 °F 30.12 in NW 1.0 mph 13.0 mph 39 % 0.00 in
14:01 57.4 °F 32.5 °F 30.12 in NNW 3.0 mph 13.0 mph 39 % 0.00 in
14:06 57.0 °F 30.9 °F 30.12 in WNW 6.0 mph 13.0 mph 37 % 0.00 in
14:11 57.2 °F 32.5 °F 30.12 in NW 3.0 mph 13.0 mph 39 % 0.00 in
14:16 57.2 °F 31.1 °F 30.12 in NW 5.0 mph 13.0 mph 37 % 0.00 in
14:21 57.2 °F 31.8 °F 30.11 in NW 6.0 mph 10.0 mph 38 % 0.00 in
14:26 57.7 °F 32.9 °F 30.11 in North 9.0 mph 10.0 mph 39 % 0.00 in
14:28 57.9 °F 32.5 °F 30.11 in NW 6.0 mph 10.0 mph 38 % 0.00 in
14:33 57.9 °F 31.8 °F 30.10 in North 3.0 mph 10.0 mph 37 % 0.00 in
14:38 58.1 °F 32.5 °F 30.10 in WNW 4.0 mph 11.0 mph 38 % 0.00 in
14:43 58.6 °F 32.4 °F 30.10 in NNW 4.0 mph 11.0 mph 37 % 0.00 in
14:48 58.5 °F 32.9 °F 30.11 in North 4.0 mph 11.0 mph 38 % 0.00 in
14:53 58.6 °F 33.1 °F 30.10 in NW 6.0 mph 11.0 mph 38 % 0.00 in
14:58 58.8 °F 33.3 °F 30.10 in NNW 7.0 mph 11.0 mph 38 % 0.00 in
15:03 59.2 °F 32.2 °F 30.10 in NW 6.0 mph 11.0 mph 36 % 0.00 in
15:08 58.8 °F 31.3 °F 30.10 in NW 5.0 mph 13.0 mph 35 % 0.00 in
15:13 58.8 °F 31.3 °F 30.10 in WNW 7.0 mph 13.0 mph 35 % 0.00 in
15:18 58.8 °F 31.3 °F 30.09 in NW 6.0 mph 13.0 mph 35 % 0.00 in
15:23 59.4 °F 32.4 °F 30.09 in NW 3.0 mph 13.0 mph 36 % 0.00 in
15:28 59.4 °F 30.9 °F 30.09 in NW 7.0 mph 13.0 mph 34 % 0.00 in
15:33 59.5 °F 31.8 °F 30.09 in NW 4.0 mph 17.0 mph 35 % 0.00 in
15:38 59.5 °F 31.1 °F 30.09 in NW 6.0 mph 17.0 mph 34 % 0.00 in
15:40 59.5 °F 31.1 °F 30.09 in NNW 4.0 mph 17.0 mph 34 % 0.00 in
15:45 59.9 °F 31.5 °F 30.09 in NW 10.0 mph 14.0 mph 34 % 0.00 in
15:50 59.9 °F 31.5 °F 30.09 in NW 9.0 mph 14.0 mph 34 % 0.00 in
15:51 59.9 °F 30.7 °F 30.08 in NW 6.0 mph 14.0 mph 33 % 0.00 in
15:56 59.9 °F 30.7 °F 30.08 in NW 6.0 mph 14.0 mph 33 % 0.00 in
16:01 60.1 °F 30.9 °F 30.08 in WNW 3.0 mph 13.0 mph 33 % 0.00 in
16:06 59.9 °F 30.0 °F 30.08 in NW 3.0 mph 13.0 mph 32 % 0.00 in
16:11 59.9 °F 30.0 °F 30.08 in NNW 1.0 mph 13.0 mph 32 % 0.00 in
16:16 60.3 °F 31.1 °F 30.08 in NW 4.0 mph 13.0 mph 33 % 0.00 in
16:21 60.1 °F 30.9 °F 30.08 in WNW 13.0 mph 13.0 mph 33 % 0.00 in
16:26 60.1 °F 30.9 °F 30.08 in NW 4.0 mph 17.0 mph 33 % 0.00 in
16:31 60.1 °F 30.9 °F 30.08 in NNW 3.0 mph 17.0 mph 33 % 0.00 in
16:36 59.9 °F 30.0 °F 30.08 in WNW 4.0 mph 17.0 mph 32 % 0.00 in
16:41 59.9 °F 30.7 °F 30.08 in NW 7.0 mph 13.0 mph 33 % 0.00 in
16:46 59.7 °F 29.8 °F 30.08 in WNW 4.0 mph 13.0 mph 32 % 0.00 in
16:56 60.1 °F 30.9 °F 30.08 in NW 4.0 mph 14.0 mph 33 % 0.00 in
17:01 60.3 °F 31.1 °F 30.08 in WNW 5.0 mph 14.0 mph 33 % 0.00 in
17:06 60.1 °F 31.6 °F 30.08 in NW 3.0 mph 14.0 mph 34 % 0.00 in
17:11 60.3 °F 31.1 °F 30.08 in NNW 3.0 mph 12.0 mph 33 % 0.00 in
17:16 60.1 °F 30.9 °F 30.08 in NNW 5.0 mph 12.0 mph 33 % 0.00 in
17:21 59.7 °F 30.6 °F 30.08 in NW 3.0 mph 9.0 mph 33 % 0.00 in
17:26 59.7 °F 29.8 °F 30.08 in NNW 8.0 mph 10.0 mph 32 % 0.00 in
17:31 59.7 °F 28.9 °F 30.08 in NW 6.0 mph 10.0 mph 31 % 0.00 in
17:36 59.5 °F 30.4 °F 30.08 in NW 2.0 mph 10.0 mph 33 % 0.00 in
17:41 59.4 °F 30.2 °F 30.08 in WNW 4.0 mph 10.0 mph 33 % 0.00 in
17:46 59.4 °F 30.2 °F 30.08 in WNW 3.0 mph 10.0 mph 33 % 0.00 in
17:51 59.4 °F 30.9 °F 30.08 in WNW 3.0 mph 9.0 mph 34 % 0.00 in
17:56 59.4 °F 30.2 °F 30.08 in NW 2.0 mph 8.0 mph 33 % 0.00 in
18:01 59.0 °F 30.0 °F 30.08 in NW 3.0 mph 7.0 mph 33 % 0.00 in
18:06 58.6 °F 31.1 °F 30.08 in NNW 2.0 mph 8.0 mph 35 % 0.00 in
18:11 58.5 °F 30.9 °F 30.09 in WNW 4.0 mph 8.0 mph 35 % 0.00 in
18:16 58.3 °F 29.3 °F 30.09 in NNW 3.0 mph 8.0 mph 33 % 0.00 in
18:21 57.9 °F 29.7 °F 30.09 in NW 1.0 mph 8.0 mph 34 % 0.00 in
18:26 57.7 °F 29.5 °F 30.09 in WNW 2.0 mph 10.0 mph 34 % 0.00 in
18:31 57.6 °F 29.5 °F 30.09 in North 6.0 mph 10.0 mph 34 % 0.00 in
18:41 57.0 °F 29.7 °F 30.09 in NW 3.0 mph 7.0 mph 35 % 0.00 in
18:46 56.8 °F 30.2 °F 30.09 in NW 3.0 mph 7.0 mph 36 % 0.00 in
18:51 56.7 °F 30.7 °F 30.09 in NW 2.0 mph 7.0 mph 37 % 0.00 in
18:56 56.1 °F 30.9 °F 30.09 in WNW 2.0 mph 7.0 mph 38 % 0.00 in
19:01 55.9 °F 30.7 °F 30.09 in NNW 7.0 mph 7.0 mph 38 % 0.00 in
19:11 55.6 °F 30.4 °F 30.09 in WNW 6.0 mph 8.0 mph 38 % 0.00 in
19:16 55.2 °F 30.0 °F 30.10 in NW 2.0 mph 8.0 mph 38 % 0.00 in
19:21 55.0 °F 29.8 °F 30.10 in NW 1.0 mph 8.0 mph 38 % 0.00 in
19:26 54.9 °F 30.4 °F 30.10 in NW 1.0 mph 8.0 mph 39 % 0.00 in
19:31 54.7 °F 30.2 °F 30.10 in NNW 2.0 mph 6.0 mph 39 % 0.00 in
19:36 54.3 °F 30.6 °F 30.10 in WNW 1.0 mph 5.0 mph 40 % 0.00 in
19:41 54.1 °F 29.7 °F 30.10 in WNW 3.0 mph 3.0 mph 39 % 0.00 in
19:46 54.0 °F 30.2 °F 30.10 in WNW 1.0 mph 4.0 mph 40 % 0.00 in
19:51 53.8 °F 30.0 °F 30.10 in Calm   4.0 mph 40 % 0.00 in
19:56 53.4 °F 29.7 °F 30.10 in NW 1.0 mph 4.0 mph 40 % 0.00 in
20:01 53.2 °F 30.2 °F 30.11 in Calm   3.0 mph 41 % 0.00 in
20:06 53.1 °F 30.6 °F 30.11 in WNW 1.0 mph 2.0 mph 42 % 0.00 in
20:11 52.9 °F 30.4 °F 30.11 in Calm   2.0 mph 42 % 0.00 in
20:16 52.5 °F 30.0 °F 30.11 in Calm   2.0 mph 42 % 0.00 in
20:21 52.3 °F 30.6 °F 30.11 in Calm   2.0 mph 43 % 0.00 in
20:26 52.2 °F 30.9 °F 30.11 in Calm   2.0 mph 44 % 0.00 in
20:31 52.0 °F 30.7 °F 30.11 in Calm   2.0 mph 44 % 0.00 in
20:36 51.6 °F 30.9 °F 30.11 in Calm   2.0 mph 45 % 0.00 in
20:41 51.3 °F 31.1 °F 30.12 in NW 1.0 mph 2.0 mph 46 % 0.00 in
20:46 51.1 °F 31.1 °F 30.12 in Calm   2.0 mph 46 % 0.00 in
20:51 51.1 °F 31.1 °F 30.12 in Calm   2.0 mph 46 % 0.00 in
20:56 50.7 °F 30.7 °F 30.12 in Calm   2.0 mph 46 % 0.00 in
21:01 50.5 °F 31.1 °F 30.12 in Calm   2.0 mph 47 % 0.00 in
21:06 50.5 °F 31.6 °F 30.12 in Calm   1.0 mph 48 % 0.00 in
21:11 50.4 °F 31.5 °F 30.12 in Calm   1.0 mph 48 % 0.00 in
21:16 50.2 °F 31.8 °F 30.12 in Calm   1.0 mph 49 % 0.00 in
21:21 49.8 °F 31.5 °F 30.12 in Calm   1.0 mph 49 % 0.00 in
21:26 49.5 °F 31.6 °F 30.12 in Calm   1.0 mph 50 % 0.00 in
21:31 49.3 °F 31.5 °F 30.12 in Calm   1.0 mph 50 % 0.00 in
21:36 49.3 °F 31.5 °F 30.12 in NW 1.0 mph 1.0 mph 50 % 0.00 in
21:41 49.3 °F 31.5 °F 30.12 in Calm   1.0 mph 50 % 0.00 in
21:46 49.3 °F 31.5 °F 30.12 in Calm   1.0 mph 50 % 0.00 in
21:51 49.1 °F 31.8 °F 30.13 in WNW 1.0 mph 1.0 mph 51 % 0.00 in
21:56 49.1 °F 31.8 °F 30.13 in Calm   1.0 mph 51 % 0.00 in
22:01 48.9 °F 31.6 °F 30.13 in Calm   1.0 mph 51 % 0.00 in
22:06 48.7 °F 31.8 °F 30.13 in Calm   1.0 mph 52 % 0.00 in
22:11 48.7 °F 31.8 °F 30.13 in Calm   1.0 mph 52 % 0.00 in
22:19 48.4 °F 32.5 °F 30.13 in Calm   1.0 mph 54 % 0.00 in
22:23 48.2 °F 32.4 °F 30.13 in Calm   1.0 mph 54 % 0.00 in
22:24 48.0 °F 32.5 °F 30.13 in Calm   1.0 mph 55 % 0.00 in
22:30 47.7 °F 32.7 °F 30.13 in Calm     56 % 0.00 in
22:35 47.1 °F 32.7 °F 30.13 in Calm     57 % 0.00 in
22:40 46.6 °F 33.4 °F 30.14 in Calm     60 % 0.00 in
22:45 46.2 °F 34.0 °F 30.14 in Calm     62 % 0.00 in
22:50 46.0 °F 34.2 °F 30.14 in Calm     63 % 0.00 in
22:55 45.7 °F 34.5 °F 30.13 in Calm     65 % 0.00 in
23:00 45.5 °F 34.9 °F 30.14 in Calm     66 % 0.00 in
23:05 45.3 °F 34.7 °F 30.14 in Calm     66 % 0.00 in
23:10 45.0 °F 34.7 °F 30.14 in Calm     67 % 0.00 in
23:15 44.4 °F 34.2 °F 30.14 in Calm     67 % 0.00 in
23:20 44.1 °F 34.2 °F 30.14 in Calm     68 % 0.00 in
23:25 43.5 °F 33.6 °F 30.14 in Calm     68 % 0.00 in
23:30 43.0 °F 33.8 °F 30.14 in Calm     70 % 0.00 in
23:35 42.4 °F 33.4 °F 30.14 in Calm     70 % 0.00 in
23:40 42.1 °F 33.4 °F 30.14 in Calm     71 % 0.00 in
23:45 41.7 °F 33.4 °F 30.14 in Calm     72 % 0.00 in
23:50 41.4 °F 33.1 °F 30.14 in Calm     72 % 0.00 in
23:55 40.8 °F 32.5 °F 30.13 in Calm     72 % 0.00 in
Spring, Texas: Villages of Bridgestone
Compliments of Weather Underground - 2.75 mb

Script developed by  Jim McMurry - jmcmurry@mwt.net Adapted for the template by  Wim van der Kuil - Leuven-Template.eu

You find our weather info also at:

UK Metoffice

WeatherCloud

Weather Underground

Mid-South Weather Network

AWEKAS

Citizen Weather Observer Program (CWOP)

HAMweather, WeatherForYou, PWS Weather

Equipment we use:

Weather-station
Davis Vantage Vue

Weather-program
Meteohub

Weather-server
Debian 7.9 x86 (Guest)

Provider
DreamHost

Davis Vantage Vue

Meteohub

Debian 7.9 x86 (Guest)

DreamHost